Time;durP1;ratioP1;P1;durP2;ratioP2;P2;SDS_P1;SDS_P2;PMS_P1;PMS_P2;Temp;Humidity;BMP_temperature;BMP_pressure;BME280_temperature;BME280_humidity;BME280_pressure;Samples;Min_cycle;Max_cycle;Signal;HPM_P1;HPM_P2
2023/08/02 00:02:12;;;;;;;5.15;2.50;;;18.50;99.90;;;;;;5092816;28;20022;-69
2023/08/02 00:04:38;;;;;;;5.03;2.28;;;18.50;99.90;;;;;;5093070;28;20029;-69
2023/08/02 00:07:05;;;;;;;6.95;2.30;;;18.50;99.90;;;;;;5109273;28;20034;-69
2023/08/02 00:09:32;;;;;;;5.47;2.60;;;18.40;99.90;;;;;;5113398;28;20028;-68
2023/08/02 00:11:57;;;;;;;4.82;2.67;;;18.40;99.90;;;;;;5112776;28;20028;-68
2023/08/02 00:14:23;;;;;;;4.63;2.60;;;18.40;99.90;;;;;;5113367;28;20027;-68
2023/08/02 00:16:49;;;;;;;5.20;2.47;;;18.40;99.90;;;;;;5104356;28;20020;-69
2023/08/02 00:19:15;;;;;;;4.15;2.30;;;18.40;99.90;;;;;;5092326;28;20024;-69
2023/08/02 00:21:41;;;;;;;7.68;2.67;;;18.40;99.90;;;;;;5091800;28;20062;-68
2023/08/02 00:24:07;;;;;;;4.65;2.28;;;18.40;99.90;;;;;;5092863;28;20069;-69
2023/08/02 00:26:33;;;;;;;5.85;2.33;;;18.30;99.90;;;;;;5092550;28;20057;-68
2023/08/02 00:28:59;;;;;;;6.63;2.72;;;18.30;99.90;;;;;;5092627;28;20099;-68
2023/08/02 00:31:25;;;;;;;9.95;2.95;;;18.30;99.90;;;;;;5092614;28;20754;-68
2023/08/02 00:33:50;;;;;;;5.70;2.80;;;18.10;99.90;;;;;;5092431;28;20028;-68
2023/08/02 00:36:16;;;;;;;7.55;3.08;;;18.20;99.90;;;;;;5092604;28;20425;-68
2023/08/02 00:38:42;;;;;;;5.78;2.97;;;18.30;99.90;;;;;;5092406;28;20028;-69
2023/08/02 00:41:20;;;;;;;6.53;3.28;;;18.30;99.90;;;;;;5092154;28;20097;-69
2023/08/02 00:43:47;;;;;;;10.50;3.25;;;18.30;99.90;;;;;;5092509;28;20057;-68
2023/08/02 00:46:14;;;;;;;6.28;3.17;;;18.40;99.90;;;;;;5091048;28;20016;-69
2023/08/02 00:48:41;;;;;;;9.32;3.63;;;18.50;99.90;;;;;;5092349;28;20020;-68
2023/08/02 00:51:12;;;;;;;7.95;3.40;;;18.40;99.90;;;;;;5092253;28;20387;-68
2023/08/02 00:53:38;;;;;;;10.57;3.70;;;18.50;99.90;;;;;;5090981;28;20106;-68
2023/08/02 00:56:05;;;;;;;6.05;2.63;;;18.50;99.90;;;;;;5092078;28;20020;-68
2023/08/02 00:58:32;;;;;;;7.65;3.15;;;18.50;99.90;;;;;;5092219;28;20035;-68
2023/08/02 01:01:07;;;;;;;9.18;2.80;;;18.50;99.90;;;;;;5092208;28;20152;-69
2023/08/02 01:03:45;;;;;;;6.85;3.13;;;18.60;99.90;;;;;;5092331;28;20051;-68
2023/08/02 01:06:29;;;;;;;11.45;3.35;;;18.60;99.90;;;;;;5092134;28;20064;-69
2023/08/02 01:09:09;;;;;;;9.77;3.60;;;18.60;99.90;;;;;;5096655;28;20027;-68
2023/08/02 01:11:54;;;;;;;10.77;3.83;;;18.50;99.90;;;;;;5112172;28;20103;-69
2023/08/02 01:14:22;;;;;;;7.68;3.42;;;18.60;99.90;;;;;;5091958;28;20032;-69
2023/08/02 01:16:49;;;;;;;9.35;3.70;;;18.50;99.90;;;;;;5095818;28;20016;-69
2023/08/02 01:19:20;;;;;;;6.82;3.55;;;18.50;99.90;;;;;;5091581;28;20102;-69
2023/08/02 01:21:46;;;;;;;7.63;3.50;;;18.60;99.90;;;;;;5094392;28;20482;-68
2023/08/02 01:24:12;;;;;;;11.60;3.60;;;18.60;99.90;;;;;;5091573;28;20038;-68
2023/08/02 01:26:43;;;;;;;5.65;3.33;;;18.40;99.90;;;;;;5092077;28;20044;-69
2023/08/02 01:29:14;;;;;;;6.43;3.83;;;18.50;99.90;;;;;;5090302;28;20073;-68
2023/08/02 01:31:42;;;;;;;7.82;3.15;;;18.50;99.90;;;;;;5093319;28;20069;-69
2023/08/02 01:34:09;;;;;;;9.25;3.70;;;18.60;99.90;;;;;;5102117;28;20205;-69
2023/08/02 01:36:34;;;;;;;7.03;3.35;;;18.40;99.90;;;;;;5107410;28;20020;-68
2023/08/02 01:39:00;;;;;;;12.38;4.38;;;18.40;99.90;;;;;;5095573;28;20439;-69
2023/08/02 01:41:26;;;;;;;7.60;3.63;;;18.40;99.90;;;;;;5096008;28;20044;-69
2023/08/02 01:43:51;;;;;;;7.68;3.78;;;18.40;99.90;;;;;;5095997;28;20062;-69
2023/08/02 01:46:17;;;;;;;8.10;3.30;;;18.50;99.90;;;;;;5101977;28;20015;-68
2023/08/02 01:48:43;;;;;;;8.43;4.15;;;18.40;99.90;;;;;;5101138;27;20032;-69
2023/08/02 01:51:09;;;;;;;9.27;3.97;;;18.40;99.90;;;;;;5101125;28;20376;-69
2023/08/02 01:53:34;;;;;;;6.90;3.38;;;18.40;99.90;;;;;;5101716;28;20404;-68
2023/08/02 01:56:00;;;;;;;10.27;3.90;;;18.40;99.90;;;;;;5095828;28;20065;-68
2023/08/02 01:58:26;;;;;;;9.27;4.20;;;18.30;99.90;;;;;;5095422;28;20028;-69
2023/08/02 02:00:51;;;;;;;6.93;3.55;;;18.40;99.90;;;;;;5096465;28;20024;-68
2023/08/02 02:03:17;;;;;;;9.73;4.07;;;18.50;99.90;;;;;;5105033;28;20059;-68
2023/08/02 02:05:52;;;;;;;8.38;3.30;;;18.50;99.90;;;;;;5100554;28;20024;-68
2023/08/02 02:08:18;;;;;;;9.98;4.00;;;18.30;99.90;;;;;;5099835;28;20031;-69
2023/08/02 02:10:51;;;;;;;4.97;3.00;;;18.30;99.90;;;;;;5095459;28;20024;-69
2023/08/02 02:13:20;;;;;;;;;;;18.30;99.90;;;;;;5107771;28;20593;-68
2023/08/02 02:15:46;;;;;;;8.30;3.55;;;18.40;99.90;;;;;;5115516;28;19903;-69
2023/08/02 02:18:12;;;;;;;8.35;3.88;;;18.50;99.90;;;;;;5115724;28;20016;-69
2023/08/02 02:20:38;;;;;;;9.68;3.15;;;18.50;99.90;;;;;;5114971;28;20036;-69
2023/08/02 02:23:04;;;;;;;8.45;3.70;;;18.50;99.90;;;;;;5115553;27;20495;-69
2023/08/02 02:25:29;;;;;;;9.25;3.67;;;18.60;99.90;;;;;;5115731;28;20084;-68
2023/08/02 02:27:55;;;;;;;6.72;3.08;;;18.50;99.90;;;;;;5115557;28;20024;-68
2023/08/02 02:30:21;;;;;;;7.82;4.07;;;18.50;99.90;;;;;;5114009;28;20027;-70
2023/08/02 02:32:47;;;;;;;9.98;3.92;;;18.40;99.90;;;;;;5115602;28;20475;-70
2023/08/02 02:35:14;;;;;;;6.80;4.07;;;18.40;99.90;;;;;;5115459;28;20028;-70
2023/08/02 02:37:40;;;;;;;8.15;4.05;;;18.40;99.90;;;;;;5114055;28;20030;-71
2023/08/02 02:40:07;;;;;;;8.10;4.53;;;18.40;99.90;;;;;;5115442;28;20383;-70
2023/08/02 02:42:32;;;;;;;11.93;5.10;;;18.40;99.90;;;;;;5114910;28;20066;-71
2023/08/02 02:44:58;;;;;;;8.68;4.57;;;18.40;99.90;;;;;;5112675;28;20040;-70
2023/08/02 02:47:24;;;;;;;8.27;4.43;;;18.30;99.90;;;;;;5115271;28;20047;-71
2023/08/02 02:49:49;;;;;;;11.10;4.45;;;18.30;99.90;;;;;;5114972;28;20054;-71
2023/08/02 02:52:15;;;;;;;13.13;4.60;;;18.20;99.90;;;;;;5114943;28;20016;-71
2023/08/02 02:54:41;;;;;;;14.43;5.47;;;18.30;99.90;;;;;;5115087;27;20023;-71
2023/08/02 02:57:07;;;;;;;8.35;4.45;;;18.40;99.90;;;;;;5115085;28;20529;-70
2023/08/02 02:59:32;;;;;;;11.02;5.28;;;18.10;99.90;;;;;;5114419;28;20027;-69
2023/08/02 03:01:59;;;;;;;10.52;4.75;;;18.20;99.90;;;;;;5114922;28;20570;-69
2023/08/02 03:04:25;;;;;;;12.60;5.47;;;18.20;99.90;;;;;;5114558;28;20020;-69
2023/08/02 03:06:51;;;;;;;12.73;4.68;;;18.20;99.90;;;;;;5114770;27;20518;-69
2023/08/02 03:09:17;;;;;;;11.38;5.10;;;18.20;99.90;;;;;;5114698;28;20048;-69
2023/08/02 03:11:43;;;;;;;10.38;5.50;;;18.20;99.90;;;;;;5114710;27;20112;-69
2023/08/02 03:14:09;;;;;;;13.95;4.95;;;18.20;99.90;;;;;;5114610;28;20019;-69
2023/08/02 03:16:35;;;;;;;11.10;4.68;;;18.00;99.90;;;;;;5113290;28;20032;-69
2023/08/02 03:19:00;;;;;;;10.43;5.18;;;18.00;99.90;;;;;;5114077;28;20039;-70
2023/08/02 03:21:26;;;;;;;11.60;5.75;;;18.00;99.90;;;;;;5113836;28;20553;-69
2023/08/02 03:23:52;;;;;;;11.18;4.88;;;18.00;99.90;;;;;;5113150;28;20110;-70
2023/08/02 03:26:17;;;;;;;8.85;4.78;;;17.90;99.90;;;;;;5114388;28;20016;-70
2023/08/02 03:28:43;;;;;;;14.05;6.20;;;17.90;99.90;;;;;;5114361;28;20016;-70
2023/08/02 03:31:09;;;;;;;12.93;5.50;;;18.10;99.90;;;;;;5114312;28;20078;-70
2023/08/02 03:33:35;;;;;;;10.75;6.32;;;18.00;99.90;;;;;;5114276;28;20016;-70
2023/08/02 03:36:01;;;;;;;10.73;5.63;;;18.00;99.90;;;;;;5112573;28;20081;-70
2023/08/02 03:38:26;;;;;;;12.18;6.38;;;18.10;99.90;;;;;;5114274;28;20027;-69
2023/08/02 03:40:53;;;;;;;9.45;5.07;;;18.10;99.90;;;;;;5114050;28;20114;-69
2023/08/02 03:43:18;;;;;;;9.02;5.50;;;18.00;99.90;;;;;;5113744;27;20028;-69
2023/08/02 03:45:44;;;;;;;11.50;5.82;;;18.00;99.90;;;;;;5114101;28;20073;-69
2023/08/02 03:48:10;;;;;;;10.85;5.50;;;17.90;99.90;;;;;;5114182;28;20380;-69
2023/08/02 03:50:35;;;;;;;9.70;5.20;;;17.90;99.90;;;;;;5113403;28;20058;-68
2023/08/02 03:53:01;;;;;;;11.90;6.38;;;17.90;99.90;;;;;;5114088;28;20023;-68
2023/08/02 03:55:27;;;;;;;11.23;6.18;;;17.90;99.90;;;;;;5112343;28;20463;-69
2023/08/02 03:57:52;;;;;;;9.35;5.80;;;17.80;99.90;;;;;;5113678;28;20027;-69
2023/08/02 04:00:18;;;;;;;12.38;6.00;;;17.80;99.90;;;;;;5113679;28;20384;-69
2023/08/02 04:02:44;;;;;;;13.52;6.68;;;17.70;99.90;;;;;;5113797;28;20097;-68
2023/08/02 04:05:10;;;;;;;10.70;5.32;;;17.80;99.90;;;;;;5113192;28;20376;-68
2023/08/02 04:07:36;;;;;;;11.85;5.68;;;17.70;99.90;;;;;;5113228;28;20024;-69
2023/08/02 04:10:02;;;;;;;13.77;6.78;;;17.80;99.90;;;;;;5113092;28;20024;-69
2023/08/02 04:12:27;;;;;;;13.80;6.80;;;17.90;99.90;;;;;;5113209;28;20051;-69
2023/08/02 04:14:54;;;;;;;14.90;5.65;;;17.70;99.90;;;;;;5113677;28;20464;-69
2023/08/02 04:17:20;;;;;;;10.43;6.05;;;17.80;99.90;;;;;;5113595;28;20068;-68
2023/08/02 04:19:46;;;;;;;12.55;6.00;;;17.80;99.90;;;;;;5112780;28;20027;-69
2023/08/02 04:22:12;;;;;;;14.48;6.53;;;17.80;99.90;;;;;;5112769;28;20031;-69
2023/08/02 04:24:37;;;;;;;13.55;6.70;;;17.70;99.90;;;;;;5110189;28;20126;-68
2023/08/02 04:27:03;;;;;;;12.32;6.18;;;17.60;99.90;;;;;;5103993;28;20031;-68
2023/08/02 04:29:29;;;;;;;15.15;6.00;;;17.70;99.90;;;;;;5104317;28;20024;-69
2023/08/02 04:31:55;;;;;;;11.38;6.03;;;17.80;99.90;;;;;;5102763;28;20032;-69
2023/08/02 04:34:21;;;;;;;13.35;6.20;;;17.70;99.90;;;;;;5092613;28;20030;-68
2023/08/02 04:36:46;;;;;;;8.75;5.97;;;17.70;99.90;;;;;;5092768;28;20039;-68
2023/08/02 04:39:13;;;;;;;12.40;6.85;;;17.70;99.90;;;;;;5092676;28;20472;-69
2023/08/02 04:41:38;;;;;;;11.10;6.22;;;17.70;99.90;;;;;;5092516;28;20039;-69
2023/08/02 04:44:04;;;;;;;9.07;6.20;;;17.60;99.90;;;;;;5092233;28;20384;-69
2023/08/02 04:46:30;;;;;;;11.07;6.78;;;17.60;99.90;;;;;;5092453;28;20388;-70
2023/08/02 04:48:56;;;;;;;11.20;6.32;;;17.60;99.90;;;;;;5091085;28;20102;-71
2023/08/02 04:51:22;;;;;;;9.73;5.88;;;17.70;99.90;;;;;;5099161;28;20103;-72
2023/08/02 04:53:48;;;;;;;9.35;5.38;;;17.70;99.90;;;;;;5096553;28;20556;-72
2023/08/02 04:56:17;;;;;;;14.70;5.90;;;17.60;99.90;;;;;;5091359;28;20103;-71
2023/08/02 04:58:43;;;;;;;12.07;6.80;;;17.70;99.90;;;;;;5091932;28;20040;-71
2023/08/02 05:01:09;;;;;;;9.70;5.75;;;17.70;99.90;;;;;;5092065;28;20070;-71
2023/08/02 05:03:36;;;;;;;11.85;6.25;;;17.60;99.90;;;;;;5090828;28;20058;-71
2023/08/02 05:06:05;;;;;;;10.45;5.95;;;17.70;99.90;;;;;;5092013;28;20035;-71
2023/08/02 05:08:34;;;;;;;8.98;6.18;;;17.70;99.90;;;;;;5091782;28;20028;-72
2023/08/02 05:11:00;;;;;;;8.57;5.93;;;17.70;99.90;;;;;;5092693;28;20035;-71
2023/08/02 05:13:26;;;;;;;11.55;6.57;;;17.60;99.90;;;;;;5105503;28;20031;-72
2023/08/02 05:15:54;;;;;;;7.35;6.32;;;17.60;99.90;;;;;;5111015;28;20153;-71
2023/08/02 05:18:20;;;;;;;9.50;6.10;;;17.50;99.90;;;;;;5112404;28;20023;-72
2023/08/02 05:20:46;;;;;;;9.27;6.32;;;17.50;99.90;;;;;;5111185;28;20032;-71
2023/08/02 05:23:11;;;;;;;9.20;5.50;;;17.50;99.90;;;;;;5111993;28;20028;-71
2023/08/02 05:25:38;;;;;;;9.88;6.25;;;17.50;99.90;;;;;;5109814;28;20674;-71
2023/08/02 05:28:04;;;;;;;8.25;6.07;;;17.50;99.90;;;;;;5102870;28;20020;-71
2023/08/02 05:30:31;;;;;;;8.10;6.35;;;17.50;99.90;;;;;;5091832;28;20381;-71
2023/08/02 05:32:57;;;;;;;9.50;6.28;;;17.50;99.90;;;;;;5090704;28;20032;-71
2023/08/02 05:35:25;;;;;;;8.60;6.38;;;17.40;99.90;;;;;;5092064;28;20020;-71
2023/08/02 05:37:54;;;;;;;7.75;6.25;;;17.50;99.90;;;;;;5092094;28;20457;-71
2023/08/02 05:40:20;;;;;;;7.60;6.15;;;17.60;99.90;;;;;;5091827;28;20117;-71
2023/08/02 05:42:47;;;;;;;7.88;6.30;;;17.70;99.90;;;;;;5091898;28;20052;-71
2023/08/02 05:45:12;;;;;;;10.68;6.30;;;17.70;99.90;;;;;;5091843;28;20039;-71
2023/08/02 05:47:38;;;;;;;7.80;6.25;;;17.60;99.90;;;;;;5091881;28;20024;-71
2023/08/02 05:50:04;;;;;;;10.07;7.03;;;17.60;99.90;;;;;;5091212;28;20388;-71
2023/08/02 05:52:30;;;;;;;8.43;4.85;;;17.70;99.90;;;;;;5091718;28;20034;-70
2023/08/02 05:54:56;;;;;;;7.80;5.70;;;17.60;99.90;;;;;;5091922;28;20028;-71
2023/08/02 05:57:21;;;;;;;10.27;6.13;;;17.70;99.90;;;;;;5091979;28;20052;-71
2023/08/02 05:59:51;;;;;;;9.10;5.93;;;17.70;99.90;;;;;;5090944;28;20042;-70
2023/08/02 06:02:17;;;;;;;8.05;5.30;;;17.80;99.90;;;;;;5091372;28;20473;-71
2023/08/02 06:04:44;;;;;;;6.93;5.70;;;17.70;99.90;;;;;;5091663;28;20077;-71
2023/08/02 06:07:10;;;;;;;6.30;5.10;;;17.70;99.90;;;;;;5091681;28;20051;-71
2023/08/02 06:09:36;;;;;;;6.68;5.07;;;17.80;99.90;;;;;;5104813;28;20159;-71
2023/08/02 06:12:02;;;;;;;8.55;5.13;;;17.70;99.90;;;;;;5101609;28;20496;-71
2023/08/02 06:14:28;;;;;;;7.03;4.75;;;17.70;99.90;;;;;;5098428;28;20032;-71
2023/08/02 06:16:53;;;;;;;6.00;5.30;;;17.70;99.90;;;;;;5091536;28;20586;-72
2023/08/02 06:19:19;;;;;;;7.60;5.47;;;17.70;99.90;;;;;;5090837;28;20492;-72
2023/08/02 06:21:45;;;;;;;7.15;4.72;;;17.70;99.90;;;;;;5093858;28;20047;-72
2023/08/02 06:24:11;;;;;;;7.50;5.53;;;17.80;99.90;;;;;;5093864;28;20098;-72
2023/08/02 06:26:37;;;;;;;6.88;4.55;;;17.80;99.90;;;;;;5095195;28;20255;-71
2023/08/02 06:29:03;;;;;;;6.63;4.55;;;17.80;99.90;;;;;;5094764;28;20063;-71
2023/08/02 06:31:29;;;;;;;7.18;5.47;;;17.80;99.90;;;;;;5103639;28;20027;-73
2023/08/02 06:33:55;;;;;;;6.70;4.40;;;17.90;99.90;;;;;;5094761;28;20021;-73
2023/08/02 06:36:20;;;;;;;6.57;4.70;;;17.90;99.90;;;;;;5095168;28;20028;-72
2023/08/02 06:38:47;;;;;;;5.63;4.57;;;17.80;99.90;;;;;;5094754;28;20353;-71
2023/08/02 06:41:12;;;;;;;4.55;4.15;;;17.80;99.90;;;;;;5094823;28;20036;-72
2023/08/02 06:43:38;;;;;;;5.25;3.97;;;17.90;99.90;;;;;;5094667;28;20503;-72
2023/08/02 06:46:05;;;;;;;4.57;3.72;;;17.90;99.90;;;;;;5094256;28;20132;-73
2023/08/02 06:48:31;;;;;;;5.97;4.50;;;17.80;99.90;;;;;;5106081;28;20019;-73
2023/08/02 06:50:57;;;;;;;4.68;4.28;;;17.70;99.90;;;;;;5099749;28;20423;-73
2023/08/02 06:53:23;;;;;;;4.72;4.07;;;17.70;99.90;;;;;;5093955;28;20012;-73
2023/08/02 06:55:49;;;;;;;6.45;4.57;;;17.80;99.90;;;;;;5094690;28;20497;-73
2023/08/02 06:58:14;;;;;;;5.05;4.22;;;17.80;99.90;;;;;;5096648;28;20024;-72
2023/08/02 07:00:41;;;;;;;6.80;4.70;;;17.80;99.90;;;;;;5095324;28;20042;-73
2023/08/02 07:03:07;;;;;;;7.60;4.75;;;17.70;99.90;;;;;;5114161;28;20016;-72
2023/08/02 07:05:34;;;;;;;7.30;4.10;;;17.70;99.90;;;;;;5114682;28;20042;-73
2023/08/02 07:08:01;;;;;;;5.50;3.83;;;17.80;99.90;;;;;;5094228;28;20085;-73
2023/08/02 07:10:28;;;;;;;5.95;3.78;;;17.70;99.90;;;;;;5094651;28;20031;-72
2023/08/02 07:12:55;;;;;;;4.38;3.30;;;17.70;99.90;;;;;;5097742;28;20811;-73
2023/08/02 07:15:21;;;;;;;4.43;3.30;;;17.70;99.90;;;;;;5100960;28;20027;-72
2023/08/02 07:17:48;;;;;;;4.35;3.90;;;17.70;99.90;;;;;;5097715;28;20527;-75
2023/08/02 07:20:14;;;;;;;4.30;2.95;;;17.80;99.90;;;;;;5093913;28;20062;-74
2023/08/02 07:22:42;;;;;;;4.32;3.42;;;17.80;99.90;;;;;;5105020;28;20103;-74
2023/08/02 07:25:09;;;;;;;3.42;3.10;;;17.90;99.90;;;;;;5094017;28;20021;-76
2023/08/02 07:27:35;;;;;;;3.30;3.00;;;17.90;99.90;;;;;;5093229;28;20020;-73
2023/08/02 07:30:02;;;;;;;3.40;2.70;;;17.90;99.90;;;;;;5092694;28;20032;-73
2023/08/02 07:32:28;;;;;;;4.85;3.20;;;18.00;99.90;;;;;;5092499;28;20032;-72
2023/08/02 07:34:54;;;;;;;3.20;2.70;;;18.20;99.90;;;;;;5099031;28;20035;-72
2023/08/02 07:37:20;;;;;;;3.92;2.60;;;18.10;99.90;;;;;;5099595;28;20104;-72
2023/08/02 07:39:46;;;;;;;3.33;2.45;;;18.00;99.90;;;;;;5093619;28;20369;-72
2023/08/02 07:42:11;;;;;;;2.97;2.78;;;18.10;99.90;;;;;;5093124;28;20065;-72
2023/08/02 07:44:37;;;;;;;4.35;2.22;;;18.20;99.90;;;;;;5107222;28;20114;-73
2023/08/02 07:47:04;;;;;;;3.78;2.30;;;18.20;99.90;;;;;;5113948;28;20024;-73
2023/08/02 07:49:31;;;;;;;2.45;2.08;;;18.20;99.90;;;;;;5113720;28;20377;-73
2023/08/02 07:51:57;;;;;;;3.15;2.28;;;18.20;99.90;;;;;;5114069;28;20027;-72
2023/08/02 07:54:23;;;;;;;2.08;1.95;;;18.30;99.90;;;;;;5114053;28;20028;-73
2023/08/02 07:56:49;;;;;;;2.10;1.90;;;18.30;99.90;;;;;;5113553;28;20073;-73
2023/08/02 07:59:14;;;;;;;2.00;1.80;;;18.30;99.90;;;;;;5113595;28;20036;-73
2023/08/02 08:01:43;;;;;;;3.65;2.15;;;18.40;99.90;;;;;;5113442;28;20115;-73
2023/08/02 08:04:09;;;;;;;3.15;1.90;;;18.40;99.90;;;;;;5113496;28;20049;-73
2023/08/02 08:06:35;;;;;;;2.47;2.17;;;18.50;99.90;;;;;;5113712;27;20024;-72
2023/08/02 08:09:01;;;;;;;2.45;1.98;;;18.60;99.90;;;;;;5113430;28;20024;-71
2023/08/02 08:11:28;;;;;;;2.10;2.00;;;18.70;99.90;;;;;;5111615;28;20027;-73
2023/08/02 08:13:53;;;;;;;2.28;2.17;;;18.80;99.90;;;;;;5113129;28;20023;-73
2023/08/02 08:16:19;;;;;;;1.98;1.80;;;18.90;99.90;;;;;;5113409;28;20020;-73
2023/08/02 08:18:45;;;;;;;1.58;1.48;;;18.90;99.90;;;;;;5102051;28;20092;-73
2023/08/02 08:21:11;;;;;;;2.05;1.50;;;19.00;99.90;;;;;;5102595;28;20364;-73
2023/08/02 08:23:36;;;;;;;4.50;1.02;;;19.00;99.90;;;;;;5092865;28;20048;-73
2023/08/02 08:26:02;;;;;;;2.28;1.08;;;19.00;99.90;;;;;;5092152;28;20043;-73
2023/08/02 08:28:28;;;;;;;0.70;0.70;;;19.20;99.90;;;;;;5092262;28;20048;-72
2023/08/02 08:31:04;;;;;;;2.15;0.77;;;19.30;99.90;;;;;;5092831;28;20085;-73
2023/08/02 08:33:31;;;;;;;2.17;1.10;;;19.40;99.90;;;;;;5092784;28;20027;-72
2023/08/02 08:35:57;;;;;;;1.80;0.90;;;19.50;99.90;;;;;;5092326;28;20082;-72
2023/08/02 08:38:22;;;;;;;0.85;0.80;;;19.60;99.90;;;;;;5091829;28;20027;-73
2023/08/02 08:40:55;;;;;;;2.15;0.90;;;19.60;99.90;;;;;;5092015;28;20052;-73
2023/08/02 08:43:28;;;;;;;0.82;0.82;;;19.60;99.90;;;;;;5097403;28;20535;-73
2023/08/02 08:45:54;;;;;;;1.23;0.93;;;19.60;99.90;;;;;;5094226;28;20142;-73
2023/08/02 08:48:21;;;;;;;1.00;0.90;;;19.60;99.90;;;;;;5101019;28;20029;-73
2023/08/02 08:50:49;;;;;;;1.33;1.20;;;19.70;99.90;;;;;;5111377;28;20035;-76
2023/08/02 08:53:20;;;;;;;0.75;0.75;;;19.70;99.90;;;;;;5112586;28;20023;-73
2023/08/02 08:55:49;;;;;;;1.95;1.35;;;19.60;99.90;;;;;;5112636;28;20028;-73
2023/08/02 08:58:16;;;;;;;1.20;1.10;;;19.70;99.90;;;;;;5111257;28;20089;-73
2023/08/02 09:00:44;;;;;;;1.17;1.08;;;19.80;99.90;;;;;;5112236;28;20032;-74
2023/08/02 09:03:12;;;;;;;1.63;1.08;;;19.90;99.90;;;;;;5111279;28;20381;-71
2023/08/02 09:05:39;;;;;;;3.30;1.25;;;19.90;99.90;;;;;;5112370;28;20468;-75
2023/08/02 09:08:05;;;;;;;1.40;1.30;;;20.00;99.90;;;;;;5111208;28;20026;-74
2023/08/02 09:10:32;;;;;;;1.63;1.00;;;20.00;99.90;;;;;;5112634;28;20035;-72
2023/08/02 09:12:58;;;;;;;1.60;1.05;;;20.00;99.90;;;;;;5112037;28;20050;-74
2023/08/02 09:15:24;;;;;;;3.53;0.93;;;20.00;99.90;;;;;;5111899;28;20507;-73
2023/08/02 09:17:53;;;;;;;1.88;1.00;;;20.10;99.90;;;;;;5111328;28;20078;-73
2023/08/02 09:20:21;;;;;;;2.17;1.30;;;20.20;99.90;;;;;;5109466;28;20053;-73
2023/08/02 09:22:47;;;;;;;1.95;0.95;;;20.30;99.90;;;;;;5111790;28;20020;-72
2023/08/02 09:25:24;;;;;;;0.93;0.90;;;20.40;99.90;;;;;;5109539;28;20085;-71
2023/08/02 09:27:51;;;;;;;0.95;0.90;;;20.50;99.90;;;;;;5112359;28;20012;-71
2023/08/02 09:30:34;;;;;;;1.85;0.98;;;20.40;99.90;;;;;;5112195;28;20028;-71
2023/08/02 09:33:06;;;;;;;6.80;1.50;;;20.50;99.90;;;;;;5111910;28;20535;-71
2023/08/02 09:35:53;;;;;;;39.17;3.30;;;20.80;99.90;;;;;;5112319;28;20019;-71
2023/08/02 09:38:19;;;;;;;6.45;1.08;;;21.00;99.90;;;;;;5111968;28;20098;-71
2023/08/02 09:40:48;;;;;;;8.43;1.55;;;21.10;99.90;;;;;;5112386;28;20073;-71
2023/08/02 09:43:17;;;;;;;3.33;1.38;;;21.10;99.90;;;;;;5112081;28;20054;-71
2023/08/02 09:45:43;;;;;;;1.30;1.05;;;21.20;99.90;;;;;;5111830;28;20023;-72
2023/08/02 09:48:09;;;;;;;1.27;0.93;;;21.10;99.90;;;;;;5111699;28;20035;-71
2023/08/02 09:50:52;;;;;;;1.58;1.10;;;21.20;99.90;;;;;;5111870;28;20023;-72
2023/08/02 09:53:18;;;;;;;1.50;0.95;;;21.20;99.90;;;;;;5112767;28;20102;-71
2023/08/02 09:55:46;;;;;;;2.30;1.10;;;21.40;99.90;;;;;;5116244;28;20059;-71
2023/08/02 09:58:13;;;;;;;18.52;4.05;;;21.50;99.90;;;;;;5114107;28;20380;-72
2023/08/02 10:00:40;;;;;;;1.15;1.08;;;21.60;99.90;;;;;;5115417;28;20094;-72
2023/08/02 10:03:06;;;;;;;1.30;1.20;;;21.50;99.90;;;;;;5115226;28;20023;-72
2023/08/02 10:05:34;;;;;;;1.48;1.38;;;21.60;99.90;;;;;;5115772;28;20023;-72
2023/08/02 10:08:01;;;;;;;2.00;1.02;;;21.50;99.90;;;;;;5115655;28;20022;-74
2023/08/02 10:10:34;;;;;;;1.50;1.40;;;21.50;99.90;;;;;;5115314;28;20024;-75
2023/08/02 10:13:06;;;;;;;0.95;0.95;;;21.60;99.90;;;;;;5115777;28;20114;-75
2023/08/02 10:15:40;;;;;;;1.55;1.00;;;21.70;99.90;;;;;;5115770;28;20016;-72
2023/08/02 10:18:08;;;;;;;1.65;1.55;;;21.90;99.90;;;;;;5111897;28;20023;-72
2023/08/02 10:20:34;;;;;;;1.10;1.10;;;21.90;99.90;;;;;;5113347;28;20514;-72
2023/08/02 10:23:04;;;;;;;1.40;1.30;;;21.90;99.90;;;;;;5115719;28;20102;-72
2023/08/02 10:25:37;;;;;;;1.92;1.30;;;21.90;99.90;;;;;;5115404;28;20096;-72
2023/08/02 10:28:04;;;;;;;1.88;1.20;;;21.90;99.90;;;;;;5115538;27;20024;-72
2023/08/02 10:30:31;;;;;;;1.45;1.35;;;21.90;99.90;;;;;;5113934;28;20364;-69
2023/08/02 10:33:20;;;;;;;2.13;1.30;;;21.90;99.90;;;;;;5115622;28;20431;-72
2023/08/02 10:36:08;;;;;;;1.42;1.33;;;21.90;99.90;;;;;;5115075;28;20498;-72
2023/08/02 10:38:39;;;;;;;1.60;1.50;;;21.80;99.90;;;;;;5115450;28;20026;-73
2023/08/02 10:41:07;;;;;;;1.67;1.23;;;21.80;99.90;;;;;;5115290;28;20115;-68
2023/08/02 10:43:33;;;;;;;1.63;1.52;;;21.80;99.90;;;;;;5115465;28;20131;-72
2023/08/02 10:46:19;;;;;;;4.25;1.65;;;21.70;99.90;;;;;;5115054;28;20519;-72
2023/08/02 10:48:45;;;;;;;2.40;1.60;;;21.70;99.90;;;;;;5115033;28;20418;-73
2023/08/02 10:51:31;;;;;;;3.70;1.70;;;21.60;99.90;;;;;;5114698;28;20056;-72
2023/08/02 10:54:18;;;;;;;2.30;1.92;;;21.60;99.90;;;;;;5115142;28;20031;-71
2023/08/02 10:56:54;;;;;;;1.33;1.23;;;21.60;99.90;;;;;;5115220;28;20034;-71
2023/08/02 10:59:23;;;;;;;1.40;1.30;;;21.50;99.90;;;;;;5112804;28;20040;-72
2023/08/02 11:02:07;;;;;;;1.17;1.15;;;21.50;99.90;;;;;;5114581;28;20657;-72
2023/08/02 11:04:35;;;;;;;1.80;1.30;;;21.50;99.90;;;;;;5114023;28;20024;-71
2023/08/02 11:07:13;;;;;;;2.65;1.40;;;21.60;99.90;;;;;;5115074;28;20088;-71
2023/08/02 11:09:39;;;;;;;1.52;1.42;;;21.60;99.90;;;;;;5114546;28;20024;-72
2023/08/02 11:12:09;;;;;;;3.78;1.80;;;21.60;99.90;;;;;;5114533;28;20537;-72
2023/08/02 11:14:34;;;;;;;3.17;1.60;;;21.60;99.90;;;;;;5114757;27;20027;-71
2023/08/02 11:17:00;;;;;;;2.10;1.90;;;21.60;99.90;;;;;;5114641;28;20505;-72
2023/08/02 11:19:28;;;;;;;4.85;2.38;;;21.60;99.90;;;;;;5114135;28;20815;-72
2023/08/02 11:21:59;;;;;;;4.85;2.00;;;21.60;99.90;;;;;;5113151;28;20028;-72
2023/08/02 11:24:25;;;;;;;3.67;1.77;;;21.50;99.90;;;;;;5114619;28;20028;-73
2023/08/02 11:26:58;;;;;;;1.95;1.30;;;21.50;99.90;;;;;;5114438;28;20468;-72
2023/08/02 11:29:24;;;;;;;1.20;1.10;;;21.50;99.90;;;;;;5114324;28;20023;-72
2023/08/02 11:31:54;;;;;;;2.55;1.23;;;21.60;99.90;;;;;;5113941;28;20024;-73
2023/08/02 11:34:20;;;;;;;6.07;1.85;;;21.60;99.90;;;;;;5114122;28;20051;-72
2023/08/02 11:36:48;;;;;;;4.30;1.60;;;21.80;99.90;;;;;;5095342;28;20040;-72
2023/08/02 11:39:20;;;;;;;86.35;12.30;;;21.90;99.90;;;;;;5099246;28;20028;-72
2023/08/02 11:42:06;;;;;;;11.35;1.83;;;22.00;99.90;;;;;;5104923;28;20391;-72
2023/08/02 11:44:32;;;;;;;6.95;1.77;;;22.30;99.90;;;;;;5104835;28;20027;-71
2023/08/02 11:46:57;;;;;;;5.63;1.65;;;22.50;99.90;;;;;;5093555;28;20024;-71
2023/08/02 11:49:23;;;;;;;5.43;1.90;;;22.80;99.90;;;;;;5093058;28;20480;-72
2023/08/02 11:51:49;;;;;;;7.03;1.98;;;23.10;99.90;;;;;;5109790;28;20023;-72
2023/08/02 11:54:16;;;;;;;11.68;2.30;;;23.20;99.90;;;;;;5113495;28;20122;-72
2023/08/02 11:56:42;;;;;;;8.57;2.13;;;23.30;99.90;;;;;;5113413;28;20077;-70
2023/08/02 11:59:09;;;;;;;7.32;2.20;;;23.50;99.90;;;;;;5113669;28;20096;-70
2023/08/02 12:01:35;;;;;;;6.82;2.00;;;23.60;99.90;;;;;;5113536;28;20654;-70
2023/08/02 12:04:03;;;;;;;7.43;2.05;;;23.70;99.90;;;;;;5113374;28;20162;-70
2023/08/02 12:06:48;;;;;;;8.18;2.30;;;23.80;99.90;;;;;;5112039;28;20024;-69
2023/08/02 12:09:15;;;;;;;5.28;1.80;;;23.60;99.90;;;;;;5113332;28;20027;-73
2023/08/02 12:11:40;;;;;;;8.55;2.30;;;23.80;99.90;;;;;;5109737;28;20100;-71
2023/08/02 12:14:06;;;;;;;8.25;2.22;;;24.00;99.90;;;;;;5112833;28;20472;-72
2023/08/02 12:16:43;;;;;;;6.57;2.22;;;24.20;99.90;;;;;;5099583;28;20482;-72
2023/08/02 12:19:10;;;;;;;11.00;2.40;;;24.40;99.90;;;;;;5093004;28;20020;-72
2023/08/02 12:21:36;;;;;;;7.72;2.20;;;24.50;99.90;;;;;;5092694;28;20043;-71
2023/08/02 12:24:16;;;;;;;12.88;2.17;;;24.50;99.90;;;;;;5108753;28;20020;-71
2023/08/02 12:26:42;;;;;;;7.43;2.50;;;24.50;99.90;;;;;;5096999;28;20521;-73
2023/08/02 12:29:08;;;;;;;10.50;2.25;;;24.60;99.90;;;;;;5091374;28;20028;-73
2023/08/02 12:31:45;;;;;;;8.40;2.20;;;24.80;99.90;;;;;;5096042;28;20094;-71
2023/08/02 12:34:10;;;;;;;5.38;2.35;;;24.80;99.90;;;;;;5110658;28;20020;-73
2023/08/02 12:36:37;;;;;;;7.40;1.88;;;24.80;99.90;;;;;;5112890;28;20028;-73
2023/08/02 12:39:03;;;;;;;6.80;1.95;;;25.00;99.90;;;;;;5112975;28;20027;-72
2023/08/02 12:41:28;;;;;;;4.88;1.98;;;25.10;99.90;;;;;;5112469;28;20089;-73
2023/08/02 12:43:54;;;;;;;90.28;13.60;;;25.10;99.90;;;;;;5112980;28;20094;-73
2023/08/02 12:46:20;;;;;;;117.40;13.63;;;25.20;99.90;;;;;;5112461;28;20142;-73
2023/08/02 12:48:46;;;;;;;4.70;1.88;;;25.10;99.90;;;;;;5111028;28;20023;-72